KHWD/HWD METAR and TAF weather

Enter ICAO airport designator
Station Type Date Time Source
KHWD METAR 2020/07/05 16:54 UTC NOAA

KHWD 051654Z VRB03KT 10SM CLR 19/12 A3002 RMK AO2 SLP173 T01940117


Station Type Date Time Source
KHWD Decoded METAR 2020/07/05 16:54 UTC NOAA

HAYWARD AIR TERMINAL, CA, United States (KHWD) 37-40N 122-07W 21M
Jul 05, 2020 - 12:54 PM EDT / 2020.07.05 1654 UTC
Wind: Variable at 3 MPH (3 KT):0
Visibility: 10 mile(s):0
Sky conditions: clear
Temperature: 66.9 F (19.4 C)
Dew Point: 53.1 F (11.7 C)
Relative Humidity: 61%
Pressure (altimeter): 30.02 in. Hg (1016 hPa)
ob: KHWD 051654Z VRB03KT 10SM CLR 19/12 A3002 RMK AO2 SLP173 T01940117
cycle: 17

Station Type Date Time Source
KHWD TAF UTC NOAA

Error!

Example: see airport list